Time;durP1;ratioP1;P1;durP2;ratioP2;P2;SDS_P1;SDS_P2;PMS_P1;PMS_P2;Temp;Humidity;BMP_temperature;BMP_pressure;BME280_temperature;BME280_humidity;BME280_pressure;Samples;Min_cycle;Max_cycle;Signal;HPM_P1;HPM_P2
2022/03/20 00:01:13;;;;;;;;;;;;;;;1.56;40.74;100519.13;1778091;78;24694;-86
2022/03/20 00:03:39;;;;;;;;;;;;;;;1.40;40.74;100522.56;1779065;79;20288;-86
2022/03/20 00:06:05;;;;;;;;;;;;;;;1.37;40.81;100521.25;1771339;79;24500;-86
2022/03/20 00:08:31;;;;;;;;;;;;;;;1.52;40.90;100519.56;1767459;79;22516;-86
2022/03/20 00:11:02;;;;;;;;;;;;;;;1.53;40.96;100509.64;1782638;79;21144;-87
2022/03/20 00:13:30;;;;;;;;;;;;;;;1.44;40.98;100517.83;1779769;79;24460;-85
2022/03/20 00:15:57;;;;;;;;;;;;;;;1.43;41.07;100515.67;1785223;79;20314;-85
2022/03/20 00:18:25;;;;;;;;;;;;;;;1.45;41.10;100518.26;1775844;79;24635;-86
2022/03/20 00:20:53;;;;;;;;;;;;;;;1.34;41.13;100516.97;1781264;79;22054;-86
2022/03/20 00:23:22;;;;;;;;;;;;;;;1.22;41.18;100515.66;1779208;79;25986;-86
2022/03/20 00:25:48;;;;;;;;;;;;;;;1.16;41.20;100519.52;1781896;79;24099;-86
2022/03/20 00:28:15;;;;;;;;;;;;;;;1.23;41.31;100515.67;1776256;78;20241;-85
2022/03/20 00:30:42;;;;;;;;;;;;;;;1.12;41.33;100512.64;1783072;78;24605;-85
2022/03/20 00:33:08;;;;;;;;;;;;;;;0.99;41.35;100520.77;1782832;79;22046;-85
2022/03/20 00:35:35;;;;;;;;;;;;;;;0.91;41.43;100516.47;1781530;78;26136;-85
2022/03/20 00:38:01;;;;;;;;;;;;;;;0.80;41.48;100521.17;1787339;78;24641;-85
2022/03/20 00:40:27;;;;;;;;;;;;;;;0.83;41.59;100523.75;1782858;79;20220;-85
2022/03/20 00:42:53;;;;;;;;;;;;;;;0.88;41.68;100516.45;1758265;79;25890;-85
2022/03/20 00:45:19;;;;;;;;;;;;;;;0.93;41.79;100519.92;1777054;79;22128;-85
2022/03/20 00:47:45;;;;;;;;;;;;;;;0.85;41.83;100523.76;1786062;79;26024;-86
2022/03/20 00:50:12;;;;;;;;;;;;;;;0.77;41.91;100522.86;1770591;79;24294;-86
2022/03/20 00:52:38;;;;;;;;;;;;;;;0.69;41.99;100518.99;1787298;78;20260;-85
2022/03/20 00:55:04;;;;;;;;;;;;;;;0.66;42.09;100516.38;1741850;81;24488;-86
2022/03/20 00:57:30;;;;;;;;;;;;;;;0.76;42.20;100510.86;1743293;81;22837;-84
2022/03/20 00:59:59;;;;;;;;;;;;;;;0.86;42.32;100513.89;1723922;82;25757;-85
2022/03/20 01:02:26;;;;;;;;;;;;;;;0.92;42.45;100502.73;1729094;81;24719;-86
2022/03/20 01:04:52;;;;;;;;;;;;;;;1.10;42.57;100494.58;1729153;82;20278;-85
2022/03/20 01:07:25;;;;;;;;;;;;;;;1.05;42.64;100495.01;1774754;79;24596;-85
2022/03/20 01:09:51;;;;;;;;;;;;;;;0.93;42.65;100496.27;1703950;83;21951;-85
2022/03/20 01:12:17;;;;;;;;;;;;;;;1.03;42.76;100501.03;1777514;79;26004;-85
2022/03/20 01:14:44;;;;;;;;;;;;;;;0.92;42.78;100494.58;1780669;79;24412;-85
2022/03/20 01:17:16;;;;;;;;;;;;;;;0.82;42.83;100500.53;1782277;78;20223;-85
2022/03/20 01:19:42;;;;;;;;;;;;;;;0.68;42.85;100504.80;1754043;79;25395;-86
2022/03/20 01:22:11;;;;;;;;;;;;;;;0.79;42.97;100494.10;1774306;79;22024;-84
2022/03/20 01:24:39;;;;;;;;;;;;;;;0.80;43.01;100502.27;1767975;79;26018;-84
2022/03/20 01:27:07;;;;;;;;;;;;;;;0.83;43.11;100500.98;1775574;78;24539;-84
2022/03/20 01:29:34;;;;;;;;;;;;;;;0.78;43.17;100501.39;1770964;79;20519;-85
2022/03/20 01:32:01;;;;;;;;;;;;;;;0.64;43.19;100505.23;1751389;79;24578;-85
2022/03/20 01:34:27;;;;;;;;;;;;;;;0.54;43.24;100506.06;1779398;80;21956;-84
2022/03/20 01:36:53;;;;;;;;;;;;;;;0.61;43.32;100505.63;1781069;78;26045;-85
2022/03/20 01:39:19;;;;;;;;;;;;;;;0.78;43.43;100508.70;1772591;80;24484;-85
2022/03/20 01:41:47;;;;;;;;;;;;;;;0.81;43.52;100510.02;1780913;80;20428;-84
2022/03/20 01:44:13;;;;;;;;;;;;;;;0.77;43.58;100507.40;1772131;79;24555;-84
2022/03/20 01:46:39;;;;;;;;;;;;;;;0.64;43.60;100503.95;1778037;80;22180;-84
2022/03/20 01:49:05;;;;;;;;;;;;;;;0.53;43.62;100504.77;1779308;80;26062;-84
2022/03/20 01:54:16;;;;;;;;;;;;;;;0.30;43.71;100505.52;1778245;80;20142;-85
2022/03/20 01:56:44;;;;;;;;;;;;;;;0.18;43.73;100506.75;1775291;80;24512;-86
2022/03/20 01:59:10;;;;;;;;;;;;;;;0.11;43.79;100501.13;1779035;80;21963;-85
2022/03/20 02:01:36;;;;;;;;;;;;;;;0.09;43.81;100500.27;1757060;80;26049;-85
2022/03/20 02:04:02;;;;;;;;;;;;;;;0.20;43.92;100504.19;1778791;80;24476;-86
2022/03/20 02:06:28;;;;;;;;;;;;;;;0.30;44.02;100504.66;1782376;78;20361;-84
2022/03/20 02:08:56;;;;;;;;;;;;;;;0.44;44.13;100505.56;1778883;80;24582;-84
2022/03/20 02:11:25;;;;;;;;;;;;;;;0.65;44.21;100500.52;1780121;79;21928;-84
2022/03/20 02:13:51;;;;;;;;;;;;;;;0.66;44.26;100503.50;1778232;80;26764;-84
2022/03/20 02:16:18;;;;;;;;;;;;;;;0.65;44.31;100497.94;1772938;80;24497;-85
2022/03/20 02:18:45;;;;;;;;;;;;;;;0.55;44.31;100497.87;1770770;80;20559;-84
2022/03/20 02:21:11;;;;;;;;;;;;;;;0.59;44.37;100494.48;1777884;80;24187;-84
2022/03/20 02:23:37;;;;;;;;;;;;;;;0.73;44.47;100494.95;1776880;80;22045;-84
2022/03/20 02:26:03;;;;;;;;;;;;;;;0.78;44.52;100493.66;1772720;80;26162;-83
2022/03/20 02:28:30;;;;;;;;;;;;;;;0.63;44.53;100494.49;1780451;80;24440;-84
2022/03/20 02:30:56;;;;;;;;;;;;;;;0.44;44.49;100493.98;1776889;80;20231;-85
2022/03/20 02:33:27;;;;;;;;;;;;;;;0.36;44.50;100491.81;1778997;79;24599;-85
2022/03/20 02:35:51;;;;;;;;;;;;;;;0.25;44.51;100485.33;1773723;79;22087;-85
2022/03/20 02:38:18;;;;;;;;;;;;;;;0.26;44.59;100496.08;1778665;78;26050;-85
2022/03/20 02:40:45;;;;;;;;;;;;;;;0.27;44.65;100490.05;1778642;80;24536;-84
2022/03/20 02:43:12;;;;;;;;;;;;;;;0.31;44.72;100491.80;1778222;80;20197;-85
2022/03/20 02:45:38;;;;;;;;;;;;;;;0.46;44.84;100496.57;1772870;79;24557;-84
2022/03/20 02:48:04;;;;;;;;;;;;;;;0.31;44.86;100493.09;1778083;78;21942;-85
2022/03/20 02:50:35;;;;;;;;;;;;;;;0.17;44.86;100492.57;1780480;80;25933;-85
2022/03/20 02:53:15;;;;;;;;;;;;;;;0.26;44.93;100493.92;1775825;80;24521;-85
2022/03/20 02:55:48;;;;;;;;;;;;;;;0.43;45.04;100496.57;1780523;78;20260;-84
2022/03/20 02:58:13;;;;;;;;;;;;;;;0.48;45.13;100493.58;1775251;80;24576;-85
2022/03/20 03:00:41;;;;;;;;;;;;;;;0.55;45.18;100492.73;1774567;80;22005;-86
2022/03/20 03:03:13;;;;;;;;;;;;;;;0.54;45.24;100494.47;1774399;78;26055;-85
2022/03/20 03:05:40;;;;;;;;;;;;;;;0.63;45.30;100493.63;1775560;80;25212;-84
2022/03/20 03:11:01;;;;;;;;;;;;;;;0.61;45.37;100491.46;1773773;80;24592;-83
2022/03/20 03:13:34;;;;;;;;;;;;;;;0.72;45.45;100495.80;1777848;80;21931;-84
2022/03/20 03:16:01;;;;;;;;;;;;;;;0.79;45.51;100495.39;1779657;80;25943;-85
2022/03/20 03:18:27;;;;;;;;;;;;;;;0.74;45.52;100497.96;1776536;80;24451;-85
2022/03/20 03:20:53;;;;;;;;;;;;;;;0.74;45.55;100494.52;1782326;80;20504;-86
2022/03/20 03:23:20;;;;;;;;;;;;;;;0.74;45.55;100498.39;1774666;80;24698;-86
2022/03/20 03:25:47;;;;;;;;;;;;;;;0.60;45.54;100494.92;1773697;80;21803;-85
2022/03/20 03:28:13;;;;;;;;;;;;;;;0.36;45.51;100495.25;1776685;80;25984;-85
2022/03/20 03:30:41;;;;;;;;;;;;;;;0.22;45.52;100501.20;1773239;80;24483;-85
2022/03/20 03:33:07;;;;;;;;;;;;;;;0.18;45.55;100496.45;1773872;80;20157;-85
2022/03/20 03:35:42;;;;;;;;;;;;;;;0.08;45.57;100506.27;1778075;80;24609;-85
2022/03/20 03:38:10;;;;;;;;;;;;;;;0.01;45.57;100505.78;1777400;80;22004;-85
2022/03/20 03:40:37;;;;;;;;;;;;;;;0.15;45.67;100509.31;1780522;80;26026;-85
2022/03/20 03:43:03;;;;;;;;;;;;;;;-0.03;45.67;100505.34;1778036;80;25167;-85
2022/03/20 03:45:29;;;;;;;;;;;;;;;-0.13;45.71;100508.72;1778111;80;20281;-85
2022/03/20 03:47:57;;;;;;;;;;;;;;;-0.05;45.77;100511.76;1776444;79;20214;-85
2022/03/20 03:50:23;;;;;;;;;;;;;;;0.05;45.86;100517.84;1775996;80;22041;-85
2022/03/20 03:52:49;;;;;;;;;;;;;;;0.16;45.95;100514.91;1761575;80;25742;-86
2022/03/20 03:55:16;;;;;;;;;;;;;;;0.21;46.02;100515.79;1775394;80;24403;-85
2022/03/20 03:57:42;;;;;;;;;;;;;;;0.20;46.05;100518.34;1774138;80;20277;-85
2022/03/20 04:00:09;;;;;;;;;;;;;;;0.23;46.08;100520.92;1775773;80;24321;-85
2022/03/20 04:02:35;;;;;;;;;;;;;;;0.26;46.12;100520.53;1774174;78;21962;-85
2022/03/20 04:05:01;;;;;;;;;;;;;;;0.31;46.15;100525.28;1777304;80;26049;-85
2022/03/20 04:07:27;;;;;;;;;;;;;;;0.34;46.18;100522.70;1775042;80;24451;-85
2022/03/20 04:09:53;;;;;;;;;;;;;;;0.34;46.20;100517.55;1774032;79;20220;-86
2022/03/20 04:12:19;;;;;;;;;;;;;;;0.37;46.22;100519.30;1778939;79;24359;-85
2022/03/20 04:14:45;;;;;;;;;;;;;;;0.38;46.26;100521.02;1782422;80;21982;-86
2022/03/20 04:17:11;;;;;;;;;;;;;;;0.36;46.29;100518.43;1782322;80;26045;-85
2022/03/20 04:19:38;;;;;;;;;;;;;;;0.31;46.29;100512.83;1778467;79;25269;-86
2022/03/20 04:22:04;;;;;;;;;;;;;;;0.27;46.31;100512.38;1777568;80;20217;-86
2022/03/20 04:24:30;;;;;;;;;;;;;;;0.27;46.34;100518.36;1776013;80;24730;-86
2022/03/20 04:27:01;;;;;;;;;;;;;;;0.31;46.38;100513.69;1781250;80;21951;-87
2022/03/20 04:29:27;;;;;;;;;;;;;;;0.09;46.37;100518.29;1780986;79;26014;-84
2022/03/20 04:31:54;;;;;;;;;;;;;;;-0.08;46.34;100514.75;1774418;80;24474;-84
2022/03/20 04:34:21;;;;;;;;;;;;;;;-0.26;46.31;100521.91;1775963;79;20501;-84
2022/03/20 04:36:48;;;;;;;;;;;;;;;-0.45;46.31;100525.21;1770695;80;24726;-84
2022/03/20 04:39:14;;;;;;;;;;;;;;;-0.63;46.30;100533.62;1779623;80;22182;-85
2022/03/20 04:41:41;;;;;;;;;;;;;;;-0.75;46.33;100533.94;1771328;80;26807;-84
2022/03/20 04:44:12;;;;;;;;;;;;;;;-0.83;46.38;100535.16;1780222;79;24494;-84
2022/03/20 04:46:35;;;;;;;;;;;;;;;-0.73;46.50;100534.40;1774480;80;20304;-84
2022/03/20 05:00:06;;;;;;;;;;;;;;;-0.38;47.06;100544.97;1780144;79;20348;-84
2022/03/20 05:02:32;;;;;;;;;;;;;;;-0.34;47.17;100545.45;1775636;80;24434;-84
2022/03/20 05:04:58;;;;;;;;;;;;;;;-0.36;47.24;100550.13;1777452;80;22010;-84
2022/03/20 05:07:25;;;;;;;;;;;;;;;-0.39;47.31;100553.56;1776965;79;21030;-84
2022/03/20 05:15:23;;;;;;;;;;;;;;;-0.30;47.51;100568.19;1776506;80;24591;-84
2022/03/20 05:17:49;;;;;;;;;;;;;;;-0.31;47.56;100566.46;1778564;80;21828;-85
2022/03/20 05:20:16;;;;;;;;;;;;;;;-0.20;47.63;100568.27;1775585;80;25990;-85
2022/03/20 05:22:42;;;;;;;;;;;;;;;-0.16;47.72;100566.15;1778683;80;24715;-85
2022/03/20 05:25:13;;;;;;;;;;;;;;;-0.14;47.77;100569.61;1777299;78;20243;-85
2022/03/20 05:27:37;;;;;;;;;;;;;;;-0.13;47.82;100571.34;1774001;80;24701;-84
2022/03/20 05:30:05;;;;;;;;;;;;;;;-0.35;47.81;100569.87;1779652;80;22089;-84
2022/03/20 05:32:32;;;;;;;;;;;;;;;-0.51;47.81;100574.02;1778497;80;26184;-85
2022/03/20 05:34:59;;;;;;;;;;;;;;;-0.52;47.87;100573.16;1778591;80;24487;-85
2022/03/20 05:37:25;;;;;;;;;;;;;;;-0.48;47.95;100579.17;1777513;80;20243;-85
2022/03/20 05:39:51;;;;;;;;;;;;;;;-0.45;48.06;100575.36;1775939;80;24576;-85
2022/03/20 05:42:17;;;;;;;;;;;;;;;-0.42;48.16;100580.09;1780098;79;21946;-84
2022/03/20 05:44:46;;;;;;;;;;;;;;;-0.43;48.27;100587.38;1775005;80;26060;-85
2022/03/20 05:47:11;;;;;;;;;;;;;;;-0.28;48.37;100582.80;1782086;80;25095;-85
2022/03/20 05:49:39;;;;;;;;;;;;;;;-0.13;48.49;100586.77;1775515;80;20199;-85
2022/03/20 05:52:07;;;;;;;;;;;;;;;0.00;48.63;100578.73;1775867;80;24689;-85
2022/03/20 05:54:34;;;;;;;;;;;;;;;0.03;48.70;100585.17;1777741;80;22072;-84
2022/03/20 05:59:44;;;;;;;;;;;;;;;0.15;48.89;100595.98;1773790;80;24439;-84
2022/03/20 06:02:10;;;;;;;;;;;;;;;0.25;49.01;100599.91;1780053;80;20272;-86
2022/03/20 06:04:37;;;;;;;;;;;;;;;0.37;49.14;100599.13;1772287;80;24630;-87
2022/03/20 06:07:08;;;;;;;;;;;;;;;0.47;49.24;100605.19;1778258;80;22103;-85
2022/03/20 06:09:32;;;;;;;;;;;;;;;0.49;49.26;100605.64;1776417;80;26003;-85
2022/03/20 06:11:58;;;;;;;;;;;;;;;0.53;49.30;100608.66;1777823;80;24141;-85
2022/03/20 06:14:24;;;;;;;;;;;;;;;0.58;49.33;100609.97;1776455;80;20250;-85
2022/03/20 06:16:51;;;;;;;;;;;;;;;0.53;49.31;100613.81;1781951;78;24508;-83
2022/03/20 06:19:17;;;;;;;;;;;;;;;0.60;49.34;100618.12;1773411;80;21533;-84
2022/03/20 06:21:44;;;;;;;;;;;;;;;0.66;49.37;100613.42;1775992;80;26132;-85
2022/03/20 06:24:10;;;;;;;;;;;;;;;0.67;49.39;100616.02;1780133;80;24522;-84
2022/03/20 06:26:37;;;;;;;;;;;;;;;0.71;49.44;100616.46;1776080;80;20213;-84
2022/03/20 06:29:09;;;;;;;;;;;;;;;0.73;49.47;100619.05;1769757;80;24591;-84
2022/03/20 06:31:32;;;;;;;;;;;;;;;0.84;49.55;100618.67;1775637;80;22209;-84
2022/03/20 06:33:59;;;;;;;;;;;;;;;0.93;49.64;100625.14;1775340;80;25983;-84
2022/03/20 06:36:25;;;;;;;;;;;;;;;0.94;49.68;100623.44;1778106;78;24479;-85
2022/03/20 06:38:52;;;;;;;;;;;;;;;0.94;49.72;100624.72;1772539;78;20234;-85
2022/03/20 06:41:18;;;;;;;;;;;;;;;0.95;49.76;100631.61;1778110;80;24699;-85
2022/03/20 06:43:44;;;;;;;;;;;;;;;0.92;49.79;100635.05;1779307;80;21965;-85
2022/03/20 06:46:10;;;;;;;;;;;;;;;0.90;49.81;100647.06;1782827;80;25963;-85
2022/03/20 06:48:37;;;;;;;;;;;;;;;0.88;49.86;100643.60;1782084;78;24521;-84
2022/03/20 06:51:06;;;;;;;;;;;;;;;0.91;49.91;100651.37;1764250;80;20239;-86
2022/03/20 06:53:33;;;;;;;;;;;;;;;0.97;50.01;100650.11;1781844;80;24734;-84
2022/03/20 06:56:00;;;;;;;;;;;;;;;1.02;50.08;100654.86;1774621;80;22068;-85
2022/03/20 06:58:28;;;;;;;;;;;;;;;1.08;50.16;100652.73;1778730;80;25934;-85
2022/03/20 07:00:54;;;;;;;;;;;;;;;1.07;50.21;100656.16;1772658;80;24643;-85
2022/03/20 07:03:20;;;;;;;;;;;;;;;1.11;50.29;100651.02;1774869;79;20151;-85
2022/03/20 07:05:47;;;;;;;;;;;;;;;1.20;50.39;100648.91;1773975;80;24581;-85
2022/03/20 07:08:13;;;;;;;;;;;;;;;1.23;50.49;100652.35;1778823;78;22078;-84
2022/03/20 07:10:39;;;;;;;;;;;;;;;1.28;50.60;100647.63;1778477;80;26021;-85
2022/03/20 07:15:53;;;;;;;;;;;;;;;1.33;50.77;100652.37;1779072;80;20565;-84
2022/03/20 07:18:20;;;;;;;;;;;;;;;1.40;50.87;100653.69;1779263;80;24578;-85
2022/03/20 07:20:47;;;;;;;;;;;;;;;1.52;50.99;100654.16;1778798;80;22023;-85
2022/03/20 07:23:13;;;;;;;;;;;;;;;1.63;51.09;100658.48;1778026;80;26024;-86
2022/03/20 07:31:10;;;;;;;;;;;;;;;1.86;51.31;100655.04;1776674;80;24572;-85
2022/03/20 07:33:37;;;;;;;;;;;;;;;1.79;51.29;100661.08;1773860;80;21927;-85
2022/03/20 07:36:04;;;;;;;;;;;;;;;1.76;51.32;100657.19;1762352;80;25996;-84
2022/03/20 07:38:30;;;;;;;;;;;;;;;1.70;51.33;100659.33;1728105;81;24434;-85
2022/03/20 07:40:57;;;;;;;;;;;;;;;1.72;51.37;100667.95;1731706;81;20272;-83
2022/03/20 07:43:23;;;;;;;;;;;;;;;1.76;51.39;100671.37;1761987;81;24542;-85
2022/03/20 07:45:50;;;;;;;;;;;;;;;1.77;51.42;100670.10;1763197;80;22011;-86
2022/03/20 07:48:16;;;;;;;;;;;;;;;1.77;51.43;100670.53;1761468;81;26061;-84
2022/03/20 07:50:42;;;;;;;;;;;;;;;1.82;51.49;100667.09;1765473;81;24580;-84
2022/03/20 07:53:11;;;;;;;;;;;;;;;1.95;51.60;100665.40;1731875;81;20161;-85
2022/03/20 07:55:39;;;;;;;;;;;;;;;2.02;51.70;100661.51;1760534;81;24536;-84
2022/03/20 07:58:05;;;;;;;;;;;;;;;2.09;51.76;100664.95;1767593;80;21987;-85
2022/03/20 08:00:34;;;;;;;;;;;;;;;2.17;51.84;100672.72;1765556;81;26173;-85
2022/03/20 08:03:01;;;;;;;;;;;;;;;2.26;51.94;100667.54;1762463;80;24578;-84
2022/03/20 08:05:27;;;;;;;;;;;;;;;2.39;52.03;100673.14;1699671;82;20182;-85
2022/03/20 08:07:53;;;;;;;;;;;;;;;2.46;52.10;100670.52;1699505;84;24491;-85
2022/03/20 08:10:19;;;;;;;;;;;;;;;2.53;52.10;100675.27;1702980;82;21992;-85
2022/03/20 08:12:46;;;;;;;;;;;;;;;2.61;52.18;100680.00;1675483;84;27046;-85
2022/03/20 08:15:16;;;;;;;;;;;;;;;2.67;52.22;100681.28;1674469;84;24628;-85
2022/03/20 08:17:44;;;;;;;;;;;;;;;2.83;52.28;100681.67;1696402;84;20795;-85
2022/03/20 08:20:10;;;;;;;;;;;;;;;2.93;52.35;100676.04;1696767;84;24527;-85
2022/03/20 08:22:37;;;;;;;;;;;;;;;3.06;52.43;100680.72;1703647;84;22034;-85
2022/03/20 08:25:04;;;;;;;;;;;;;;;3.12;52.42;100680.27;1700898;83;26885;-85
2022/03/20 08:27:30;;;;;;;;;;;;;;;3.18;52.45;100681.97;1714677;82;24542;-85
2022/03/20 08:29:57;;;;;;;;;;;;;;;3.25;52.49;100678.50;1701070;84;20547;-85
2022/03/20 08:32:24;;;;;;;;;;;;;;;3.31;52.54;100681.06;1701035;84;24566;-86
2022/03/20 08:34:52;;;;;;;;;;;;;;;3.33;52.56;100682.77;1703818;82;22031;-85
2022/03/20 08:37:18;;;;;;;;;;;;;;;3.44;52.60;100683.17;1726642;81;26117;-85
2022/03/20 08:39:44;;;;;;;;;;;;;;;3.54;52.67;100683.11;1722560;81;24541;-85
2022/03/20 08:42:10;;;;;;;;;;;;;;;3.63;52.75;100686.07;1715664;82;20318;-85
2022/03/20 08:44:37;;;;;;;;;;;;;;;3.74;52.87;100679.10;1691234;82;25257;-85
2022/03/20 08:47:03;;;;;;;;;;;;;;;3.79;52.94;100680.79;1730547;81;21733;-84
2022/03/20 08:49:29;;;;;;;;;;;;;;;3.87;53.01;100674.28;1699556;83;26242;-86
2022/03/20 08:51:55;;;;;;;;;;;;;;;3.97;53.10;100684.13;1729460;82;24426;-85
2022/03/20 08:54:22;;;;;;;;;;;;;;;4.07;53.18;100683.19;1720044;81;20294;-84
2022/03/20 08:56:48;;;;;;;;;;;;;;;4.14;53.18;100679.69;1730945;82;24527;-85
2022/03/20 08:59:15;;;;;;;;;;;;;;;4.25;53.21;100680.89;1725259;82;22806;-85
2022/03/20 09:01:41;;;;;;;;;;;;;;;4.32;53.18;100678.22;1716995;82;26094;-85
2022/03/20 09:04:10;;;;;;;;;;;;;;;4.41;53.17;100678.16;1716825;83;24486;-85
2022/03/20 09:06:37;;;;;;;;;;;;;;;4.48;53.11;100672.02;1720213;82;20482;-85
2022/03/20 09:09:05;;;;;;;;;;;;;;;4.59;53.06;100679.27;1715361;83;24586;-86
2022/03/20 09:11:31;;;;;;;;;;;;;;;4.68;53.02;100681.36;1712760;83;22052;-85
2022/03/20 09:13:57;;;;;;;;;;;;;;;4.72;52.96;100676.12;1715998;81;21071;-85
2022/03/20 09:19:08;;;;;;;;;;;;;;;4.88;52.86;100681.56;1721226;83;20243;-84
2022/03/20 09:21:36;;;;;;;;;;;;;;;4.98;52.80;100677.98;1711709;82;24601;-85
2022/03/20 09:24:03;;;;;;;;;;;;;;;5.07;52.73;100677.48;1717697;82;22869;-84
2022/03/20 09:26:30;;;;;;;;;;;;;;;5.17;52.70;100674.75;1709492;83;26824;-83
2022/03/20 09:28:56;;;;;;;;;;;;;;;5.26;52.63;100673.33;1712431;81;24498;-84
2022/03/20 09:31:23;;;;;;;;;;;;;;;5.34;52.49;100671.95;1715611;81;20404;-84
2022/03/20 09:33:49;;;;;;;;;;;;;;;5.39;52.33;100673.61;1716633;82;24538;-83
2022/03/20 09:36:17;;;;;;;;;;;;;;;5.45;52.22;100664.41;1715266;83;21992;-85
2022/03/20 09:38:44;;;;;;;;;;;;;;;5.53;52.11;100672.11;1708913;81;26888;-85
2022/03/20 09:41:11;;;;;;;;;;;;;;;5.59;51.98;100672.03;1737276;82;24422;-85
2022/03/20 09:43:42;;;;;;;;;;;;;;;5.69;51.87;100667.55;1705900;82;20322;-85
2022/03/20 09:46:09;;;;;;;;;;;;;;;5.75;51.73;100664.88;1697485;83;24552;-85
2022/03/20 09:48:35;;;;;;;;;;;;;;;5.82;51.60;100659.58;1751586;81;21843;-84
2022/03/20 09:51:01;;;;;;;;;;;;;;;5.93;51.48;100660.75;1739082;81;25967;-84
2022/03/20 09:53:29;;;;;;;;;;;;;;;6.00;51.33;100662.34;1737988;80;20176;-85
2022/03/20 09:55:56;;;;;;;;;;;;;;;6.07;51.15;100659.21;1743634;80;21079;-84
2022/03/20 09:58:27;;;;;;;;;;;;;;;6.11;50.99;100655.23;1736036;80;24496;-85
2022/03/20 10:00:53;;;;;;;;;;;;;;;6.17;50.85;100653.84;1702999;83;21994;-85
2022/03/20 10:03:21;;;;;;;;;;;;;;;6.24;50.66;100652.00;1722132;82;25984;-85
2022/03/20 10:06:06;;;;;;;;;;;;;;;6.32;50.46;100653.18;1722000;82;24458;-85
2022/03/20 10:08:32;;;;;;;;;;;;;;;6.42;50.24;100656.03;1722504;81;20541;-84
2022/03/20 10:11:16;;;;;;;;;;;;;;;6.52;50.17;100652.38;1716413;82;24866;-85
2022/03/20 10:13:46;;;;;;;;;;;;;;;6.63;50.07;100655.21;1718338;82;21987;-83
2022/03/20 10:16:17;;;;;;;;;;;;;;;6.70;49.92;100649.45;1701151;83;26101;-84
2022/03/20 10:18:47;;;;;;;;;;;;;;;6.77;49.78;100648.43;1701704;83;20571;-85
2022/03/20 10:21:19;;;;;;;;;;;;;;;6.81;49.55;100651.41;1746035;81;20286;-85
2022/03/20 10:23:42;;;;;;;;;;;;;;;6.85;49.32;100641.34;1738484;81;24738;-86
2022/03/20 10:26:21;;;;;;;;;;;;;;;6.86;49.00;100641.77;1696457;83;21962;-86
2022/03/20 10:28:45;;;;;;;;;;;;;;;6.88;48.71;100641.28;1706648;83;26223;-86
2022/03/20 10:31:18;;;;;;;;;;;;;;;6.92;48.47;100642.95;1685511;83;26648;-85
2022/03/20 10:33:48;;;;;;;;;;;;;;;6.94;48.16;100646.36;1693707;83;20170;-85
2022/03/20 10:36:19;;;;;;;;;;;;;;;6.98;47.87;100641.50;1726264;80;25342;-86
2022/03/20 10:38:47;;;;;;;;;;;;;;;7.05;47.67;100640.94;1694206;84;22036;-84
2022/03/20 10:41:27;;;;;;;;;;;;;;;7.12;47.41;100639.94;1715926;82;25940;-86
2022/03/20 10:43:56;;;;;;;;;;;;;;;7.14;47.10;100641.64;1722130;81;24453;-85
2022/03/20 10:46:24;;;;;;;;;;;;;;;7.19;46.88;100638.07;1721342;82;20303;-85
2022/03/20 10:48:52;;;;;;;;;;;;;;;7.22;46.60;100634.09;1728166;82;24507;-85
2022/03/20 10:51:37;;;;;;;;;;;;;;;7.28;46.41;100629.61;1719802;82;22040;-86
2022/03/20 10:54:01;;;;;;;;;;;;;;;7.34;46.23;100633.84;1720823;82;26148;-85
2022/03/20 10:56:26;;;;;;;;;;;;;;;7.44;46.12;100628.83;1725156;82;25445;-84
2022/03/20 10:58:52;;;;;;;;;;;;;;;7.50;45.87;100627.39;1722506;82;20342;-85
2022/03/20 11:01:19;;;;;;;;;;;;;;;7.59;45.72;100628.48;1725193;82;24438;-84
2022/03/20 11:03:46;;;;;;;;;;;;;;;7.59;45.48;100616.76;1722586;82;22789;-85
2022/03/20 11:06:13;;;;;;;;;;;;;;;7.66;45.35;100614.88;1711593;82;25854;-85
2022/03/20 11:08:39;;;;;;;;;;;;;;;7.78;45.30;100610.69;1722469;82;24447;-85
2022/03/20 11:11:06;;;;;;;;;;;;;;;7.88;45.15;100604.36;1737797;82;20300;-86
2022/03/20 11:13:33;;;;;;;;;;;;;;;7.98;45.03;100604.53;1716376;82;24584;-85
2022/03/20 11:16:00;;;;;;;;;;;;;;;8.01;44.81;100605.78;1703190;82;21875;-86
2022/03/20 11:18:27;;;;;;;;;;;;;;;8.03;44.50;100603.11;1688621;84;25966;-85
2022/03/20 11:20:53;;;;;;;;;;;;;;;8.05;44.30;100594.81;1691157;83;24454;-85
2022/03/20 11:23:24;;;;;;;;;;;;;;;8.09;44.10;100588.63;1690239;83;20281;-85
2022/03/20 11:25:51;;;;;;;;;;;;;;;8.15;43.97;100588.47;1696169;82;25297;-85
2022/03/20 11:28:23;;;;;;;;;;;;;;;8.17;43.71;100585.39;1727420;82;21973;-84
2022/03/20 11:30:51;;;;;;;;;;;;;;;8.19;43.48;100583.58;1755725;79;26044;-85
2022/03/20 11:33:21;;;;;;;;;;;;;;;8.26;43.30;100584.69;1775028;79;24411;-86
2022/03/20 11:35:48;;;;;;;;;;;;;;;8.30;43.08;100580.27;1723736;80;20465;-86
2022/03/20 11:38:18;;;;;;;;;;;;;;;8.30;42.84;100576.36;1780900;79;24762;-85
2022/03/20 11:41:05;;;;;;;;;;;;;;;8.33;42.63;100578.46;1775312;79;21988;-86
2022/03/20 11:43:33;;;;;;;;;;;;;;;8.37;42.45;100574.01;1783636;79;25977;-86
2022/03/20 11:46:30;;;;;;;;;;;;;;;8.38;42.20;100570.51;1730020;82;24406;-86
2022/03/20 11:49:08;;;;;;;;;;;;;;;8.41;42.05;100563.89;1778063;79;20320;-87
2022/03/20 11:51:54;;;;;;;;;;;;;;;8.48;41.85;100562.83;1732963;81;24514;-86
2022/03/20 11:54:20;;;;;;;;;;;;;;;8.53;41.64;100556.18;1728872;81;22001;-84
2022/03/20 11:56:48;;;;;;;;;;;;;;;8.52;41.33;100554.02;1739917;82;25973;-85
2022/03/20 11:59:33;;;;;;;;;;;;;;;8.54;41.13;100548.77;1784334;79;24408;-86
2022/03/20 12:02:03;;;;;;;;;;;;;;;8.57;41.02;100548.66;1777870;78;20289;-85
2022/03/20 12:04:31;;;;;;;;;;;;;;;8.63;40.92;100545.44;1781495;79;24695;-86
2022/03/20 12:07:17;;;;;;;;;;;;;;;8.70;40.83;100546.13;1781398;79;22784;-85
2022/03/20 12:09:53;;;;;;;;;;;;;;;8.78;40.71;100540.25;1777787;79;25984;-84
2022/03/20 12:12:21;;;;;;;;;;;;;;;8.90;40.62;100537.70;1774687;79;24517;-84
2022/03/20 12:14:51;;;;;;;;;;;;;;;8.97;40.51;100525.74;1784157;78;20381;-86
2022/03/20 12:17:31;;;;;;;;;;;;;;;9.00;40.32;100526.12;1791194;79;24599;-85
2022/03/20 12:19:59;;;;;;;;;;;;;;;9.01;40.14;100522.13;1780861;79;22155;-85
2022/03/20 12:22:27;;;;;;;;;;;;;;;9.06;40.00;100531.13;1784698;79;26061;-87
2022/03/20 12:25:03;;;;;;;;;;;;;;;9.10;39.90;100525.79;1734734;82;24451;-85
2022/03/20 12:27:30;;;;;;;;;;;;;;;9.13;39.84;100520.45;1708484;83;20260;-85
2022/03/20 12:29:58;;;;;;;;;;;;;;;9.17;39.75;100518.14;1774008;79;24538;-86
2022/03/20 12:32:25;;;;;;;;;;;;;;;9.16;39.59;100512.99;1724459;80;21942;-85
2022/03/20 12:35:02;;;;;;;;;;;;;;;9.13;39.32;100518.30;1774800;79;25987;-86
2022/03/20 12:37:37;;;;;;;;;;;;;;;9.10;39.19;100515.34;1774920;79;24459;-85
2022/03/20 12:40:04;;;;;;;;;;;;;;;9.10;39.02;100512.73;1697603;82;20205;-86
2022/03/20 12:42:33;;;;;;;;;;;;;;;9.17;39.00;100517.28;1754643;79;21435;-85
2022/03/20 12:45:00;;;;;;;;;;;;;;;9.13;38.92;100499.56;1772162;79;22001;-86
2022/03/20 12:47:27;;;;;;;;;;;;;;;9.27;38.81;100512.66;1749983;79;26641;-86
2022/03/20 12:50:09;;;;;;;;;;;;;;;9.23;38.63;100511.87;1773694;79;21495;-86
2022/03/20 12:52:39;;;;;;;;;;;;;;;9.22;38.51;100494.48;1774113;79;20449;-87
2022/03/20 12:55:15;;;;;;;;;;;;;;;9.19;38.34;100501.13;1782292;79;24498;-85
2022/03/20 12:57:42;;;;;;;;;;;;;;;9.17;38.19;100501.16;1775864;79;21970;-84
2022/03/20 13:00:13;;;;;;;;;;;;;;;9.18;38.09;100506.80;1788205;79;26147;-85
2022/03/20 13:02:57;;;;;;;;;;;;;;;9.17;38.00;100499.00;1794022;78;24523;-85
2022/03/20 13:05:24;;;;;;;;;;;;;;;9.18;37.94;100496.80;1745659;81;20252;-85
2022/03/20 13:07:53;;;;;;;;;;;;;;;9.20;37.83;100498.48;1698560;81;25273;-85
2022/03/20 13:10:20;;;;;;;;;;;;;;;9.21;37.72;100494.11;1701086;83;21958;-85
2022/03/20 13:12:53;;;;;;;;;;;;;;;9.24;37.60;100490.08;1739670;81;25929;-84
2022/03/20 13:15:24;;;;;;;;;;;;;;;9.28;37.58;100488.22;1740261;82;24450;-85
2022/03/20 13:17:50;;;;;;;;;;;;;;;9.32;37.55;100488.09;1738394;82;20246;-85
2022/03/20 13:20:20;;;;;;;;;;;;;;;9.31;37.44;100485.08;1742853;82;25319;-84
2022/03/20 13:22:46;;;;;;;;;;;;;;;9.33;37.37;100492.39;1723942;82;21859;-86
2022/03/20 13:25:20;;;;;;;;;;;;;;;9.33;37.29;100488.95;1739664;82;26190;-85